sensor_id;sensor_type;location;lat;lon;timestamp;P1;durP1;ratioP1;P2;durP2;ratioP2
72053;SDS011;59918;51.280;7.950;2022-11-15T00:01:33;14.38;;;10.07;;
72053;SDS011;59918;51.280;7.950;2022-11-15T00:04:01;22.80;;;11.35;;
72053;SDS011;59918;51.280;7.950;2022-11-15T00:06:27;20.85;;;11.18;;
72053;SDS011;59918;51.280;7.950;2022-11-15T00:08:52;19.45;;;10.82;;
72053;SDS011;59918;51.280;7.950;2022-11-15T00:11:17;20.63;;;11.90;;
72053;SDS011;59918;51.280;7.950;2022-11-15T00:13:43;22.48;;;12.20;;
72053;SDS011;59918;51.280;7.950;2022-11-15T00:16:08;21.58;;;11.75;;
72053;SDS011;59918;51.280;7.950;2022-11-15T00:18:34;24.05;;;13.05;;
72053;SDS011;59918;51.280;7.950;2022-11-15T00:21:03;19.60;;;12.60;;
72053;SDS011;59918;51.280;7.950;2022-11-15T00:23:30;23.27;;;11.63;;
72053;SDS011;59918;51.280;7.950;2022-11-15T00:25:58;20.27;;;11.52;;
72053;SDS011;59918;51.280;7.950;2022-11-15T00:28:24;17.95;;;12.07;;
72053;SDS011;59918;51.280;7.950;2022-11-15T00:30:50;20.33;;;11.35;;
72053;SDS011;59918;51.280;7.950;2022-11-15T00:33:16;23.73;;;12.38;;
72053;SDS011;59918;51.280;7.950;2022-11-15T00:35:41;20.60;;;12.85;;
72053;SDS011;59918;51.280;7.950;2022-11-15T00:38:07;18.48;;;11.90;;
72053;SDS011;59918;51.280;7.950;2022-11-15T00:40:32;22.85;;;12.52;;
72053;SDS011;59918;51.280;7.950;2022-11-15T00:42:57;19.50;;;12.80;;
72053;SDS011;59918;51.280;7.950;2022-11-15T00:45:23;19.88;;;10.80;;
72053;SDS011;59918;51.280;7.950;2022-11-15T00:47:49;17.52;;;11.60;;
72053;SDS011;59918;51.280;7.950;2022-11-15T00:50:14;21.08;;;12.40;;
72053;SDS011;59918;51.280;7.950;2022-11-15T00:52:43;21.90;;;12.07;;
72053;SDS011;59918;51.280;7.950;2022-11-15T00:55:18;20.33;;;12.23;;
72053;SDS011;59918;51.280;7.950;2022-11-15T00:57:44;23.42;;;12.43;;
72053;SDS011;59918;51.280;7.950;2022-11-15T01:00:10;17.98;;;12.35;;
72053;SDS011;59918;51.280;7.950;2022-11-15T01:02:36;19.02;;;10.52;;
72053;SDS011;59918;51.280;7.950;2022-11-15T01:05:01;17.85;;;11.65;;
72053;SDS011;59918;51.280;7.950;2022-11-15T01:07:27;19.10;;;13.23;;
72053;SDS011;59918;51.280;7.950;2022-11-15T01:09:54;17.55;;;11.57;;
72053;SDS011;59918;51.280;7.950;2022-11-15T01:12:20;20.42;;;12.00;;
72053;SDS011;59918;51.280;7.950;2022-11-15T01:14:50;16.70;;;10.80;;
72053;SDS011;59918;51.280;7.950;2022-11-15T01:17:16;15.57;;;11.35;;
72053;SDS011;59918;51.280;7.950;2022-11-15T01:19:41;18.05;;;11.85;;
72053;SDS011;59918;51.280;7.950;2022-11-15T01:22:06;16.40;;;11.57;;
72053;SDS011;59918;51.280;7.950;2022-11-15T01:24:31;17.20;;;10.50;;
72053;SDS011;59918;51.280;7.950;2022-11-15T01:26:57;16.35;;;10.90;;
72053;SDS011;59918;51.280;7.950;2022-11-15T01:29:24;16.05;;;10.90;;
72053;SDS011;59918;51.280;7.950;2022-11-15T01:31:49;15.82;;;10.27;;
72053;SDS011;59918;51.280;7.950;2022-11-15T01:34:15;14.93;;;10.70;;
72053;SDS011;59918;51.280;7.950;2022-11-15T01:36:40;18.30;;;10.60;;
72053;SDS011;59918;51.280;7.950;2022-11-15T01:39:05;15.55;;;9.68;;
72053;SDS011;59918;51.280;7.950;2022-11-15T01:41:33;15.55;;;10.15;;
72053;SDS011;59918;51.280;7.950;2022-11-15T01:47:01;14.18;;;9.73;;
72053;SDS011;59918;51.280;7.950;2022-11-15T01:49:31;13.23;;;8.93;;
72053;SDS011;59918;51.280;7.950;2022-11-15T01:51:58;11.60;;;9.20;;
72053;SDS011;59918;51.280;7.950;2022-11-15T01:54:26;13.32;;;9.15;;
72053;SDS011;59918;51.280;7.950;2022-11-15T01:56:53;13.63;;;9.63;;
72053;SDS011;59918;51.280;7.950;2022-11-15T01:59:22;13.77;;;9.13;;
72053;SDS011;59918;51.280;7.950;2022-11-15T02:01:47;9.93;;;8.70;;
72053;SDS011;59918;51.280;7.950;2022-11-15T02:04:17;15.80;;;9.15;;
72053;SDS011;59918;51.280;7.950;2022-11-15T02:07:04;12.15;;;8.73;;
72053;SDS011;59918;51.280;7.950;2022-11-15T02:09:31;14.65;;;8.70;;
72053;SDS011;59918;51.280;7.950;2022-11-15T02:11:56;14.25;;;8.98;;
72053;SDS011;59918;51.280;7.950;2022-11-15T02:14:22;9.63;;;7.85;;
72053;SDS011;59918;51.280;7.950;2022-11-15T02:25:01;9.20;;;7.28;;
72053;SDS011;59918;51.280;7.950;2022-11-15T02:27:37;11.60;;;7.32;;
72053;SDS011;59918;51.280;7.950;2022-11-15T02:35:57;7.72;;;6.75;;
72053;SDS011;59918;51.280;7.950;2022-11-15T02:38:29;11.75;;;6.50;;
72053;SDS011;59918;51.280;7.950;2022-11-15T02:49:31;9.70;;;5.90;;
72053;SDS011;59918;51.280;7.950;2022-11-15T02:51:58;10.77;;;6.55;;
72053;SDS011;59918;51.280;7.950;2022-11-15T02:54:24;8.43;;;5.68;;
72053;SDS011;59918;51.280;7.950;2022-11-15T02:56:54;7.53;;;5.97;;
72053;SDS011;59918;51.280;7.950;2022-11-15T03:02:04;7.50;;;6.00;;
72053;SDS011;59918;51.280;7.950;2022-11-15T03:10:17;6.55;;;5.68;;
72053;SDS011;59918;51.280;7.950;2022-11-15T03:13:02;6.28;;;5.00;;
72053;SDS011;59918;51.280;7.950;2022-11-15T03:15:44;6.85;;;5.32;;
72053;SDS011;59918;51.280;7.950;2022-11-15T03:18:23;7.72;;;6.18;;
72053;SDS011;59918;51.280;7.950;2022-11-15T03:20:57;6.65;;;5.90;;
72053;SDS011;59918;51.280;7.950;2022-11-15T03:23:24;7.03;;;5.53;;
72053;SDS011;59918;51.280;7.950;2022-11-15T03:25:53;9.30;;;6.47;;
72053;SDS011;59918;51.280;7.950;2022-11-15T03:28:28;8.45;;;6.18;;
72053;SDS011;59918;51.280;7.950;2022-11-15T03:30:58;8.80;;;5.80;;
72053;SDS011;59918;51.280;7.950;2022-11-15T03:33:27;7.55;;;6.20;;
72053;SDS011;59918;51.280;7.950;2022-11-15T03:35:53;8.88;;;5.72;;
72053;SDS011;59918;51.280;7.950;2022-11-15T03:38:26;6.30;;;5.63;;
72053;SDS011;59918;51.280;7.950;2022-11-15T03:40:58;7.78;;;6.70;;
72053;SDS011;59918;51.280;7.950;2022-11-15T03:43:42;8.05;;;6.18;;
72053;SDS011;59918;51.280;7.950;2022-11-15T03:49:09;9.80;;;7.13;;
72053;SDS011;59918;51.280;7.950;2022-11-15T03:51:47;9.15;;;7.18;;
72053;SDS011;59918;51.280;7.950;2022-11-15T03:54:13;10.63;;;7.13;;
72053;SDS011;59918;51.280;7.950;2022-11-15T03:56:40;8.07;;;6.82;;
72053;SDS011;59918;51.280;7.950;2022-11-15T03:59:05;9.57;;;7.13;;
72053;SDS011;59918;51.280;7.950;2022-11-15T04:01:36;8.40;;;6.88;;
72053;SDS011;59918;51.280;7.950;2022-11-15T04:04:01;9.13;;;7.13;;
72053;SDS011;59918;51.280;7.950;2022-11-15T04:06:26;13.63;;;8.15;;
72053;SDS011;59918;51.280;7.950;2022-11-15T04:08:54;8.82;;;7.32;;
72053;SDS011;59918;51.280;7.950;2022-11-15T04:11:19;8.15;;;6.82;;
72053;SDS011;59918;51.280;7.950;2022-11-15T04:13:44;10.43;;;7.57;;
72053;SDS011;59918;51.280;7.950;2022-11-15T04:16:09;13.95;;;7.90;;
72053;SDS011;59918;51.280;7.950;2022-11-15T04:18:37;13.45;;;8.43;;
72053;SDS011;59918;51.280;7.950;2022-11-15T04:21:02;8.90;;;7.50;;
72053;SDS011;59918;51.280;7.950;2022-11-15T04:23:28;13.93;;;7.88;;
72053;SDS011;59918;51.280;7.950;2022-11-15T04:25:53;8.60;;;7.57;;
72053;SDS011;59918;51.280;7.950;2022-11-15T04:28:20;8.40;;;7.50;;
72053;SDS011;59918;51.280;7.950;2022-11-15T04:30:48;9.27;;;6.85;;
72053;SDS011;59918;51.280;7.950;2022-11-15T04:33:14;10.77;;;8.07;;
72053;SDS011;59918;51.280;7.950;2022-11-15T04:35:39;9.38;;;7.47;;
72053;SDS011;59918;51.280;7.950;2022-11-15T04:38:06;10.30;;;7.57;;
72053;SDS011;59918;51.280;7.950;2022-11-15T04:40:33;8.63;;;7.40;;
72053;SDS011;59918;51.280;7.950;2022-11-15T04:42:58;7.63;;;6.57;;
72053;SDS011;59918;51.280;7.950;2022-11-15T04:45:26;7.95;;;6.45;;
72053;SDS011;59918;51.280;7.950;2022-11-15T04:47:51;11.32;;;6.90;;
72053;SDS011;59918;51.280;7.950;2022-11-15T04:50:16;11.88;;;7.13;;
72053;SDS011;59918;51.280;7.950;2022-11-15T04:52:49;8.27;;;6.57;;
72053;SDS011;59918;51.280;7.950;2022-11-15T04:57:44;9.90;;;6.70;;
72053;SDS011;59918;51.280;7.950;2022-11-15T05:00:12;8.57;;;6.72;;
72053;SDS011;59918;51.280;7.950;2022-11-15T05:02:39;9.70;;;6.72;;
72053;SDS011;59918;51.280;7.950;2022-11-15T05:05:10;8.05;;;6.75;;
72053;SDS011;59918;51.280;7.950;2022-11-15T05:07:35;7.93;;;6.28;;
72053;SDS011;59918;51.280;7.950;2022-11-15T05:10:00;9.10;;;6.30;;
72053;SDS011;59918;51.280;7.950;2022-11-15T05:12:25;9.52;;;6.38;;
72053;SDS011;59918;51.280;7.950;2022-11-15T05:14:53;9.02;;;6.25;;
72053;SDS011;59918;51.280;7.950;2022-11-15T05:17:18;10.98;;;6.07;;
72053;SDS011;59918;51.280;7.950;2022-11-15T05:19:43;6.97;;;6.15;;
72053;SDS011;59918;51.280;7.950;2022-11-15T05:22:11;8.63;;;6.03;;
72053;SDS011;59918;51.280;7.950;2022-11-15T05:24:36;8.48;;;6.22;;
72053;SDS011;59918;51.280;7.950;2022-11-15T05:27:01;8.70;;;6.25;;
72053;SDS011;59918;51.280;7.950;2022-11-15T05:29:28;7.85;;;6.10;;
72053;SDS011;59918;51.280;7.950;2022-11-15T05:31:56;8.57;;;6.18;;
72053;SDS011;59918;51.280;7.950;2022-11-15T05:34:21;7.75;;;6.40;;
72053;SDS011;59918;51.280;7.950;2022-11-15T05:36:46;7.57;;;5.60;;
72053;SDS011;59918;51.280;7.950;2022-11-15T05:39:14;8.13;;;6.32;;
72053;SDS011;59918;51.280;7.950;2022-11-15T05:41:41;6.20;;;5.60;;
72053;SDS011;59918;51.280;7.950;2022-11-15T05:44:14;7.30;;;5.78;;
72053;SDS011;59918;51.280;7.950;2022-11-15T05:46:42;6.32;;;5.43;;
72053;SDS011;59918;51.280;7.950;2022-11-15T05:49:09;6.13;;;5.38;;
72053;SDS011;59918;51.280;7.950;2022-11-15T05:51:40;7.45;;;6.10;;
72053;SDS011;59918;51.280;7.950;2022-11-15T05:54:08;7.95;;;5.60;;
72053;SDS011;59918;51.280;7.950;2022-11-15T05:56:35;6.25;;;5.60;;
72053;SDS011;59918;51.280;7.950;2022-11-15T05:59:00;8.15;;;5.85;;
72053;SDS011;59918;51.280;7.950;2022-11-15T06:01:25;5.88;;;5.28;;
72053;SDS011;59918;51.280;7.950;2022-11-15T06:03:52;6.45;;;5.35;;
72053;SDS011;59918;51.280;7.950;2022-11-15T06:06:19;5.80;;;5.18;;
72053;SDS011;59918;51.280;7.950;2022-11-15T06:08:44;8.32;;;5.68;;
72053;SDS011;59918;51.280;7.950;2022-11-15T06:11:09;5.55;;;5.05;;
72053;SDS011;59918;51.280;7.950;2022-11-15T06:13:35;6.57;;;5.28;;
72053;SDS011;59918;51.280;7.950;2022-11-15T06:16:00;5.97;;;4.68;;
72053;SDS011;59918;51.280;7.950;2022-11-15T06:18:25;7.40;;;4.70;;
72053;SDS011;59918;51.280;7.950;2022-11-15T06:20:51;5.85;;;5.32;;
72053;SDS011;59918;51.280;7.950;2022-11-15T06:23:16;5.18;;;4.47;;
72053;SDS011;59918;51.280;7.950;2022-11-15T06:25:42;6.93;;;5.15;;
72053;SDS011;59918;51.280;7.950;2022-11-15T06:28:07;4.70;;;4.30;;
72053;SDS011;59918;51.280;7.950;2022-11-15T06:30:32;5.95;;;4.85;;
72053;SDS011;59918;51.280;7.950;2022-11-15T06:33:04;7.20;;;4.60;;
72053;SDS011;59918;51.280;7.950;2022-11-15T06:35:30;5.82;;;4.60;;
72053;SDS011;59918;51.280;7.950;2022-11-15T06:38:05;5.43;;;4.07;;
72053;SDS011;59918;51.280;7.950;2022-11-15T06:40:35;6.63;;;3.80;;
72053;SDS011;59918;51.280;7.950;2022-11-15T06:43:02;5.20;;;4.18;;
72053;SDS011;59918;51.280;7.950;2022-11-15T06:45:28;6.28;;;4.55;;
72053;SDS011;59918;51.280;7.950;2022-11-15T06:47:54;8.23;;;5.75;;
72053;SDS011;59918;51.280;7.950;2022-11-15T06:50:22;4.50;;;4.10;;
72053;SDS011;59918;51.280;7.950;2022-11-15T06:52:47;5.43;;;4.10;;
72053;SDS011;59918;51.280;7.950;2022-11-15T06:55:15;5.47;;;4.40;;
72053;SDS011;59918;51.280;7.950;2022-11-15T06:57:46;4.32;;;4.00;;
72053;SDS011;59918;51.280;7.950;2022-11-15T07:00:16;4.60;;;4.20;;
72053;SDS011;59918;51.280;7.950;2022-11-15T07:02:43;4.50;;;4.20;;
72053;SDS011;59918;51.280;7.950;2022-11-15T07:05:08;5.55;;;3.85;;
72053;SDS011;59918;51.280;7.950;2022-11-15T07:07:34;4.97;;;4.28;;
72053;SDS011;59918;51.280;7.950;2022-11-15T07:09:59;4.47;;;3.60;;
72053;SDS011;59918;51.280;7.950;2022-11-15T07:12:24;5.72;;;4.00;;
72053;SDS011;59918;51.280;7.950;2022-11-15T07:14:49;5.53;;;3.65;;
72053;SDS011;59918;51.280;7.950;2022-11-15T07:17:15;5.03;;;3.83;;
72053;SDS011;59918;51.280;7.950;2022-11-15T07:19:40;4.38;;;3.97;;
72053;SDS011;59918;51.280;7.950;2022-11-15T07:22:06;3.95;;;3.53;;
72053;SDS011;59918;51.280;7.950;2022-11-15T07:24:31;3.72;;;3.42;;
72053;SDS011;59918;51.280;7.950;2022-11-15T07:26:56;5.22;;;3.97;;
72053;SDS011;59918;51.280;7.950;2022-11-15T07:29:21;3.85;;;3.47;;
72053;SDS011;59918;51.280;7.950;2022-11-15T07:31:47;5.03;;;3.47;;
72053;SDS011;59918;51.280;7.950;2022-11-15T07:34:12;4.03;;;3.65;;
72053;SDS011;59918;51.280;7.950;2022-11-15T07:36:37;3.55;;;3.17;;
72053;SDS011;59918;51.280;7.950;2022-11-15T07:39:02;3.72;;;3.28;;
72053;SDS011;59918;51.280;7.950;2022-11-15T07:41:30;3.30;;;2.53;;
72053;SDS011;59918;51.280;7.950;2022-11-15T07:43:55;4.28;;;3.28;;
72053;SDS011;59918;51.280;7.950;2022-11-15T07:46:20;4.53;;;2.90;;
72053;SDS011;59918;51.280;7.950;2022-11-15T07:48:46;4.25;;;3.20;;
72053;SDS011;59918;51.280;7.950;2022-11-15T07:51:14;4.22;;;3.10;;
72053;SDS011;59918;51.280;7.950;2022-11-15T07:53:43;5.68;;;3.17;;
72053;SDS011;59918;51.280;7.950;2022-11-15T07:56:09;3.83;;;3.08;;
72053;SDS011;59918;51.280;7.950;2022-11-15T07:58:34;2.72;;;2.53;;
72053;SDS011;59918;51.280;7.950;2022-11-15T08:01:07;5.90;;;3.20;;
72053;SDS011;59918;51.280;7.950;2022-11-15T08:03:34;3.92;;;2.75;;
72053;SDS011;59918;51.280;7.950;2022-11-15T08:06:00;3.20;;;2.90;;
72053;SDS011;59918;51.280;7.950;2022-11-15T08:08:26;2.53;;;2.33;;
72053;SDS011;59918;51.280;7.950;2022-11-15T08:10:51;3.10;;;2.80;;
72053;SDS011;59918;51.280;7.950;2022-11-15T08:13:16;4.78;;;2.55;;
72053;SDS011;59918;51.280;7.950;2022-11-15T08:15:42;3.60;;;2.30;;
72053;SDS011;59918;51.280;7.950;2022-11-15T08:18:11;3.33;;;2.25;;
72053;SDS011;59918;51.280;7.950;2022-11-15T08:20:38;2.42;;;2.22;;
72053;SDS011;59918;51.280;7.950;2022-11-15T08:23:04;2.85;;;1.98;;
72053;SDS011;59918;51.280;7.950;2022-11-15T08:25:31;2.97;;;2.00;;
72053;SDS011;59918;51.280;7.950;2022-11-15T08:27:58;3.08;;;2.25;;
72053;SDS011;59918;51.280;7.950;2022-11-15T08:30:25;3.35;;;2.28;;
72053;SDS011;59918;51.280;7.950;2022-11-15T08:32:55;2.47;;;2.28;;
72053;SDS011;59918;51.280;7.950;2022-11-15T08:35:21;3.13;;;2.00;;
72053;SDS011;59918;51.280;7.950;2022-11-15T08:37:47;2.22;;;1.92;;
72053;SDS011;59918;51.280;7.950;2022-11-15T08:40:12;3.70;;;2.00;;
72053;SDS011;59918;51.280;7.950;2022-11-15T08:42:38;2.40;;;2.20;;
72053;SDS011;59918;51.280;7.950;2022-11-15T08:45:03;2.72;;;2.50;;
72053;SDS011;59918;51.280;7.950;2022-11-15T08:47:29;2.97;;;2.50;;
72053;SDS011;59918;51.280;7.950;2022-11-15T08:49:54;2.75;;;2.35;;
72053;SDS011;59918;51.280;7.950;2022-11-15T08:52:23;2.53;;;2.33;;
72053;SDS011;59918;51.280;7.950;2022-11-15T08:54:49;3.25;;;1.98;;
72053;SDS011;59918;51.280;7.950;2022-11-15T08:57:14;4.95;;;2.50;;
72053;SDS011;59918;51.280;7.950;2022-11-15T08:59:39;2.88;;;2.40;;
72053;SDS011;59918;51.280;7.950;2022-11-15T09:02:05;2.35;;;2.20;;
72053;SDS011;59918;51.280;7.950;2022-11-15T09:04:30;4.40;;;2.58;;
72053;SDS011;59918;51.280;7.950;2022-11-15T09:06:56;2.58;;;2.08;;
72053;SDS011;59918;51.280;7.950;2022-11-15T09:09:21;2.80;;;2.25;;
72053;SDS011;59918;51.280;7.950;2022-11-15T09:11:46;3.90;;;2.33;;
72053;SDS011;59918;51.280;7.950;2022-11-15T09:14:12;1.80;;;1.70;;
72053;SDS011;59918;51.280;7.950;2022-11-15T09:16:38;3.13;;;1.95;;
72053;SDS011;59918;51.280;7.950;2022-11-15T09:19:03;2.08;;;1.98;;
72053;SDS011;59918;51.280;7.950;2022-11-15T09:21:29;4.00;;;2.30;;
72053;SDS011;59918;51.280;7.950;2022-11-15T09:23:55;2.40;;;2.20;;
72053;SDS011;59918;51.280;7.950;2022-11-15T09:26:20;2.00;;;1.80;;
72053;SDS011;59918;51.280;7.950;2022-11-15T09:28:46;4.32;;;2.22;;
72053;SDS011;59918;51.280;7.950;2022-11-15T09:31:11;2.33;;;2.13;;
72053;SDS011;59918;51.280;7.950;2022-11-15T09:33:36;3.75;;;2.10;;
72053;SDS011;59918;51.280;7.950;2022-11-15T09:36:02;2.85;;;2.00;;
72053;SDS011;59918;51.280;7.950;2022-11-15T09:38:30;4.72;;;2.25;;
72053;SDS011;59918;51.280;7.950;2022-11-15T09:41:08;2.40;;;2.20;;
72053;SDS011;59918;51.280;7.950;2022-11-15T09:49:31;4.40;;;2.22;;
72053;SDS011;59918;51.280;7.950;2022-11-15T09:51:57;3.17;;;2.25;;
72053;SDS011;59918;51.280;7.950;2022-11-15T09:54:33;3.03;;;2.53;;
72053;SDS011;59918;51.280;7.950;2022-11-15T10:02:36;2.80;;;2.60;;
72053;SDS011;59918;51.280;7.950;2022-11-15T10:05:22;3.47;;;2.25;;
72053;SDS011;59918;51.280;7.950;2022-11-15T10:10:40;3.35;;;2.20;;
72053;SDS011;59918;51.280;7.950;2022-11-15T10:13:13;4.70;;;2.40;;
72053;SDS011;59918;51.280;7.950;2022-11-15T10:15:42;2.50;;;2.30;;
72053;SDS011;59918;51.280;7.950;2022-11-15T10:18:13;2.53;;;2.33;;
72053;SDS011;59918;51.280;7.950;2022-11-15T10:20:49;3.72;;;2.47;;
72053;SDS011;59918;51.280;7.950;2022-11-15T10:23:22;4.10;;;2.80;;
72053;SDS011;59918;51.280;7.950;2022-11-15T10:25:50;3.42;;;2.10;;
72053;SDS011;59918;51.280;7.950;2022-11-15T10:28:27;2.53;;;2.10;;
72053;SDS011;59918;51.280;7.950;2022-11-15T10:30:55;2.90;;;2.15;;
72053;SDS011;59918;51.280;7.950;2022-11-15T10:41:16;2.13;;;2.00;;
72053;SDS011;59918;51.280;7.950;2022-11-15T10:43:43;2.63;;;1.88;;
72053;SDS011;59918;51.280;7.950;2022-11-15T10:46:19;2.15;;;1.88;;
72053;SDS011;59918;51.280;7.950;2022-11-15T10:48:46;1.75;;;1.55;;
72053;SDS011;59918;51.280;7.950;2022-11-15T10:51:22;3.88;;;2.13;;
72053;SDS011;59918;51.280;7.950;2022-11-15T10:53:52;1.52;;;1.35;;
72053;SDS011;59918;51.280;7.950;2022-11-15T10:56:24;2.67;;;1.40;;
72053;SDS011;59918;51.280;7.950;2022-11-15T10:58:51;1.52;;;1.30;;
72053;SDS011;59918;51.280;7.950;2022-11-15T11:01:20;3.45;;;1.70;;
72053;SDS011;59918;51.280;7.950;2022-11-15T11:04:29;2.33;;;1.77;;
72053;SDS011;59918;51.280;7.950;2022-11-15T11:09:33;2.13;;;1.48;;
72053;SDS011;59918;51.280;7.950;2022-11-15T11:11:58;1.73;;;1.52;;
72053;SDS011;59918;51.280;7.950;2022-11-15T11:14:31;1.73;;;1.30;;
72053;SDS011;59918;51.280;7.950;2022-11-15T11:32:45;1.95;;;1.40;;
72053;SDS011;59918;51.280;7.950;2022-11-15T11:52:44;3.15;;;1.40;;
72053;SDS011;59918;51.280;7.950;2022-11-15T12:00:55;1.50;;;1.10;;
72053;SDS011;59918;51.280;7.950;2022-11-15T12:03:39;1.35;;;1.25;;
72053;SDS011;59918;51.280;7.950;2022-11-15T12:09:01;2.20;;;1.30;;
72053;SDS011;59918;51.280;7.950;2022-11-15T12:12:06;3.22;;;1.30;;
72053;SDS011;59918;51.280;7.950;2022-11-15T12:17:16;1.42;;;1.20;;
72053;SDS011;59918;51.280;7.950;2022-11-15T12:19:44;2.80;;;1.30;;
72053;SDS011;59918;51.280;7.950;2022-11-15T12:22:12;3.70;;;1.40;;
72053;SDS011;59918;51.280;7.950;2022-11-15T12:24:45;1.60;;;1.27;;
72053;SDS011;59918;51.280;7.950;2022-11-15T12:27:20;2.78;;;1.25;;
72053;SDS011;59918;51.280;7.950;2022-11-15T12:30:27;1.85;;;1.00;;
72053;SDS011;59918;51.280;7.950;2022-11-15T12:38:58;0.95;;;0.90;;
72053;SDS011;59918;51.280;7.950;2022-11-15T12:41:25;1.92;;;1.20;;
72053;SDS011;59918;51.280;7.950;2022-11-15T12:43:52;1.20;;;1.10;;
72053;SDS011;59918;51.280;7.950;2022-11-15T13:02:19;2.88;;;0.80;;
72053;SDS011;59918;51.280;7.950;2022-11-15T13:17:55;2.47;;;0.70;;
72053;SDS011;59918;51.280;7.950;2022-11-15T13:20:23;1.65;;;0.90;;
72053;SDS011;59918;51.280;7.950;2022-11-15T13:28:01;1.60;;;1.25;;
72053;SDS011;59918;51.280;7.950;2022-11-15T13:38:40;1.90;;;1.00;;
72053;SDS011;59918;51.280;7.950;2022-11-15T13:41:11;3.20;;;0.95;;
72053;SDS011;59918;51.280;7.950;2022-11-15T13:43:41;2.15;;;1.15;;
72053;SDS011;59918;51.280;7.950;2022-11-15T13:48:35;2.83;;;1.02;;
72053;SDS011;59918;51.280;7.950;2022-11-15T13:51:05;4.18;;;1.35;;
72053;SDS011;59918;51.280;7.950;2022-11-15T13:56:00;1.42;;;1.08;;
72053;SDS011;59918;51.280;7.950;2022-11-15T13:58:26;5.35;;;1.50;;
72053;SDS011;59918;51.280;7.950;2022-11-15T14:01:02;1.58;;;0.90;;
72053;SDS011;59918;51.280;7.950;2022-11-15T14:03:31;2.03;;;1.13;;
72053;SDS011;59918;51.280;7.950;2022-11-15T14:06:05;1.70;;;0.90;;
72053;SDS011;59918;51.280;7.950;2022-11-15T14:08:35;3.55;;;0.93;;
72053;SDS011;59918;51.280;7.950;2022-11-15T14:13:58;2.47;;;1.25;;
72053;SDS011;59918;51.280;7.950;2022-11-15T14:16:31;2.63;;;0.77;;
72053;SDS011;59918;51.280;7.950;2022-11-15T14:19:01;12.68;;;2.25;;
72053;SDS011;59918;51.280;7.950;2022-11-15T14:21:30;15.90;;;2.20;;
72053;SDS011;59918;51.280;7.950;2022-11-15T14:24:18;25.70;;;4.60;;
72053;SDS011;59918;51.280;7.950;2022-11-15T14:26:45;1.88;;;1.00;;
72053;SDS011;59918;51.280;7.950;2022-11-15T14:29:24;2.22;;;1.10;;
72053;SDS011;59918;51.280;7.950;2022-11-15T14:31:50;0.98;;;0.90;;
72053;SDS011;59918;51.280;7.950;2022-11-15T14:34:16;3.88;;;1.00;;
72053;SDS011;59918;51.280;7.950;2022-11-15T14:36:41;2.65;;;0.90;;
72053;SDS011;59918;51.280;7.950;2022-11-15T14:39:08;4.68;;;1.45;;
72053;SDS011;59918;51.280;7.950;2022-11-15T14:41:36;1.63;;;1.15;;
72053;SDS011;59918;51.280;7.950;2022-11-15T14:44:04;1.25;;;0.90;;
72053;SDS011;59918;51.280;7.950;2022-11-15T14:46:30;4.30;;;1.20;;
72053;SDS011;59918;51.280;7.950;2022-11-15T14:48:58;3.05;;;1.20;;
72053;SDS011;59918;51.280;7.950;2022-11-15T14:51:23;1.88;;;1.08;;
72053;SDS011;59918;51.280;7.950;2022-11-15T14:53:49;1.70;;;0.90;;
72053;SDS011;59918;51.280;7.950;2022-11-15T14:56:14;3.33;;;1.02;;
72053;SDS011;59918;51.280;7.950;2022-11-15T14:58:40;1.35;;;1.00;;
72053;SDS011;59918;51.280;7.950;2022-11-15T15:01:13;2.60;;;1.10;;
72053;SDS011;59918;51.280;7.950;2022-11-15T15:03:42;2.17;;;0.90;;
72053;SDS011;59918;51.280;7.950;2022-11-15T15:06:07;1.30;;;0.85;;
72053;SDS011;59918;51.280;7.950;2022-11-15T15:08:33;1.27;;;1.00;;
72053;SDS011;59918;51.280;7.950;2022-11-15T15:10:58;1.48;;;0.90;;
72053;SDS011;59918;51.280;7.950;2022-11-15T15:13:24;3.80;;;1.35;;
72053;SDS011;59918;51.280;7.950;2022-11-15T15:15:50;1.58;;;1.05;;
72053;SDS011;59918;51.280;7.950;2022-11-15T15:18:16;1.85;;;1.25;;
72053;SDS011;59918;51.280;7.950;2022-11-15T15:20:42;1.75;;;0.80;;
72053;SDS011;59918;51.280;7.950;2022-11-15T15:23:16;1.17;;;1.05;;
72053;SDS011;59918;51.280;7.950;2022-11-15T15:25:43;1.38;;;1.10;;
72053;SDS011;59918;51.280;7.950;2022-11-15T15:28:08;1.25;;;1.00;;
72053;SDS011;59918;51.280;7.950;2022-11-15T15:30:34;1.00;;;0.95;;
72053;SDS011;59918;51.280;7.950;2022-11-15T15:32:59;2.15;;;0.90;;
72053;SDS011;59918;51.280;7.950;2022-11-15T15:35:25;2.47;;;1.10;;
72053;SDS011;59918;51.280;7.950;2022-11-15T15:37:54;1.10;;;1.00;;
72053;SDS011;59918;51.280;7.950;2022-11-15T15:40:20;1.55;;;1.25;;
72053;SDS011;59918;51.280;7.950;2022-11-15T15:42:47;2.08;;;1.10;;
72053;SDS011;59918;51.280;7.950;2022-11-15T15:45:13;1.35;;;1.10;;
72053;SDS011;59918;51.280;7.950;2022-11-15T15:47:39;2.13;;;1.17;;
72053;SDS011;59918;51.280;7.950;2022-11-15T15:50:24;1.15;;;1.05;;
72053;SDS011;59918;51.280;7.950;2022-11-15T15:52:53;1.23;;;1.10;;
72053;SDS011;59918;51.280;7.950;2022-11-15T15:55:20;2.72;;;0.95;;
72053;SDS011;59918;51.280;7.950;2022-11-15T15:57:47;2.42;;;1.00;;
72053;SDS011;59918;51.280;7.950;2022-11-15T16:00:13;1.85;;;0.80;;
72053;SDS011;59918;51.280;7.950;2022-11-15T16:02:41;3.00;;;1.58;;
72053;SDS011;59918;51.280;7.950;2022-11-15T16:05:06;1.95;;;1.00;;
72053;SDS011;59918;51.280;7.950;2022-11-15T16:07:35;3.30;;;1.25;;
72053;SDS011;59918;51.280;7.950;2022-11-15T16:10:00;1.63;;;1.42;;
72053;SDS011;59918;51.280;7.950;2022-11-15T16:12:27;1.30;;;1.10;;
72053;SDS011;59918;51.280;7.950;2022-11-15T16:14:53;1.40;;;1.17;;
72053;SDS011;59918;51.280;7.950;2022-11-15T16:17:21;1.10;;;1.00;;
72053;SDS011;59918;51.280;7.950;2022-11-15T16:19:49;2.58;;;1.00;;
72053;SDS011;59918;51.280;7.950;2022-11-15T16:22:14;1.08;;;1.00;;
72053;SDS011;59918;51.280;7.950;2022-11-15T16:24:39;1.92;;;0.90;;
72053;SDS011;59918;51.280;7.950;2022-11-15T16:27:05;2.30;;;1.10;;
72053;SDS011;59918;51.280;7.950;2022-11-15T16:29:30;1.00;;;1.00;;
72053;SDS011;59918;51.280;7.950;2022-11-15T16:32:01;1.17;;;1.08;;
72053;SDS011;59918;51.280;7.950;2022-11-15T16:34:27;1.23;;;1.10;;
72053;SDS011;59918;51.280;7.950;2022-11-15T16:36:53;2.35;;;1.02;;
72053;SDS011;59918;51.280;7.950;2022-11-15T16:39:18;2.17;;;1.20;;
72053;SDS011;59918;51.280;7.950;2022-11-15T16:41:43;1.35;;;1.25;;
72053;SDS011;59918;51.280;7.950;2022-11-15T16:44:09;4.93;;;1.20;;
72053;SDS011;59918;51.280;7.950;2022-11-15T16:46:34;1.40;;;1.30;;
72053;SDS011;59918;51.280;7.950;2022-11-15T16:49:00;1.45;;;1.30;;
72053;SDS011;59918;51.280;7.950;2022-11-15T16:51:25;1.95;;;1.45;;
72053;SDS011;59918;51.280;7.950;2022-11-15T16:53:51;3.85;;;1.60;;
72053;SDS011;59918;51.280;7.950;2022-11-15T16:58:55;1.77;;;1.48;;
72053;SDS011;59918;51.280;7.950;2022-11-15T17:01:25;1.90;;;1.58;;
72053;SDS011;59918;51.280;7.950;2022-11-15T17:04:03;5.55;;;1.80;;
72053;SDS011;59918;51.280;7.950;2022-11-15T17:06:28;1.70;;;1.58;;
72053;SDS011;59918;51.280;7.950;2022-11-15T17:08:53;2.05;;;1.70;;
72053;SDS011;59918;51.280;7.950;2022-11-15T17:11:20;1.55;;;1.45;;
72053;SDS011;59918;51.280;7.950;2022-11-15T17:13:46;3.42;;;1.70;;
72053;SDS011;59918;51.280;7.950;2022-11-15T17:16:13;2.58;;;1.65;;
72053;SDS011;59918;51.280;7.950;2022-11-15T17:18:42;2.10;;;1.90;;
72053;SDS011;59918;51.280;7.950;2022-11-15T17:21:11;2.28;;;1.48;;
72053;SDS011;59918;51.280;7.950;2022-11-15T17:23:38;3.15;;;1.65;;
72053;SDS011;59918;51.280;7.950;2022-11-15T17:26:04;2.03;;;1.70;;
72053;SDS011;59918;51.280;7.950;2022-11-15T17:28:33;3.58;;;1.48;;
72053;SDS011;59918;51.280;7.950;2022-11-15T17:30:59;1.88;;;1.75;;
72053;SDS011;59918;51.280;7.950;2022-11-15T17:33:24;2.13;;;1.95;;
72053;SDS011;59918;51.280;7.950;2022-11-15T17:35:57;3.80;;;1.75;;